sensor_id;sensor_type;location;lat;lon;timestamp;temperature;humidity
5711;DHT22;61291;52.524;13.422;2022-12-17T00:00:47;0.00;99.90
5711;DHT22;61291;52.524;13.422;2022-12-17T00:03:31;-0.10;99.90
5711;DHT22;61291;52.524;13.422;2022-12-17T00:06:17;0.00;99.90
5711;DHT22;61291;52.524;13.422;2022-12-17T00:09:01;0.00;99.90
5711;DHT22;61291;52.524;13.422;2022-12-17T00:11:45;0.10;99.90
5711;DHT22;61291;52.524;13.422;2022-12-17T00:14:29;0.10;99.90
5711;DHT22;61291;52.524;13.422;2022-12-17T00:17:13;0.20;99.90
5711;DHT22;61291;52.524;13.422;2022-12-17T00:19:57;0.30;99.90
5711;DHT22;61291;52.524;13.422;2022-12-17T00:22:46;0.20;99.90
5711;DHT22;61291;52.524;13.422;2022-12-17T00:25:30;0.20;99.90
5711;DHT22;61291;52.524;13.422;2022-12-17T00:28:14;0.30;99.90
5711;DHT22;61291;52.524;13.422;2022-12-17T00:30:58;0.30;99.90
5711;DHT22;61291;52.524;13.422;2022-12-17T00:33:42;0.20;99.90
5711;DHT22;61291;52.524;13.422;2022-12-17T00:36:26;0.20;99.90
5711;DHT22;61291;52.524;13.422;2022-12-17T00:39:10;0.10;99.90
5711;DHT22;61291;52.524;13.422;2022-12-17T00:41:55;0.10;99.90
5711;DHT22;61291;52.524;13.422;2022-12-17T00:44:39;0.10;99.90
5711;DHT22;61291;52.524;13.422;2022-12-17T00:47:23;0.30;99.90
5711;DHT22;61291;52.524;13.422;2022-12-17T00:50:07;0.30;99.90
5711;DHT22;61291;52.524;13.422;2022-12-17T00:52:52;0.10;99.90
5711;DHT22;61291;52.524;13.422;2022-12-17T00:55:37;0.20;99.90
5711;DHT22;61291;52.524;13.422;2022-12-17T00:58:21;0.30;99.90
5711;DHT22;61291;52.524;13.422;2022-12-17T01:01:06;0.40;99.90
5711;DHT22;61291;52.524;13.422;2022-12-17T01:03:50;0.40;99.90
5711;DHT22;61291;52.524;13.422;2022-12-17T01:06:34;0.50;99.90
5711;DHT22;61291;52.524;13.422;2022-12-17T01:09:18;0.50;99.90
5711;DHT22;61291;52.524;13.422;2022-12-17T01:12:02;0.50;99.90
5711;DHT22;61291;52.524;13.422;2022-12-17T01:14:46;0.50;99.90
5711;DHT22;61291;52.524;13.422;2022-12-17T01:17:29;0.40;99.90
5711;DHT22;61291;52.524;13.422;2022-12-17T01:20:14;0.40;99.90
5711;DHT22;61291;52.524;13.422;2022-12-17T01:22:58;0.40;99.90
5711;DHT22;61291;52.524;13.422;2022-12-17T01:25:42;0.40;99.90
5711;DHT22;61291;52.524;13.422;2022-12-17T01:28:26;0.50;99.90
5711;DHT22;61291;52.524;13.422;2022-12-17T01:31:11;0.40;99.90
5711;DHT22;61291;52.524;13.422;2022-12-17T01:33:55;0.50;99.90
5711;DHT22;61291;52.524;13.422;2022-12-17T01:36:43;0.50;99.90
5711;DHT22;61291;52.524;13.422;2022-12-17T01:39:28;0.50;99.90
5711;DHT22;61291;52.524;13.422;2022-12-17T01:42:12;0.50;99.90
5711;DHT22;61291;52.524;13.422;2022-12-17T01:44:56;0.50;99.90
5711;DHT22;61291;52.524;13.422;2022-12-17T01:47:50;0.50;99.90
5711;DHT22;61291;52.524;13.422;2022-12-17T01:50:40;0.50;99.90
5711;DHT22;61291;52.524;13.422;2022-12-17T01:53:28;0.40;99.90
5711;DHT22;61291;52.524;13.422;2022-12-17T01:56:15;0.40;99.90
5711;DHT22;61291;52.524;13.422;2022-12-17T01:59:00;0.40;99.90
5711;DHT22;61291;52.524;13.422;2022-12-17T02:01:45;0.40;99.90
5711;DHT22;61291;52.524;13.422;2022-12-17T02:04:29;0.40;99.90
5711;DHT22;61291;52.524;13.422;2022-12-17T02:07:30;0.50;99.90
5711;DHT22;61291;52.524;13.422;2022-12-17T02:10:30;0.50;99.90
5711;DHT22;61291;52.524;13.422;2022-12-17T02:13:21;0.50;99.90
5711;DHT22;61291;52.524;13.422;2022-12-17T02:16:15;0.60;99.90
5711;DHT22;61291;52.524;13.422;2022-12-17T02:19:43;0.60;99.90
5711;DHT22;61291;52.524;13.422;2022-12-17T02:22:39;0.50;99.90
5711;DHT22;61291;52.524;13.422;2022-12-17T02:25:50;0.70;99.90
5711;DHT22;61291;52.524;13.422;2022-12-17T02:28:36;0.60;99.90
5711;DHT22;61291;52.524;13.422;2022-12-17T02:31:22;0.70;99.90
5711;DHT22;61291;52.524;13.422;2022-12-17T02:34:07;0.60;99.90
5711;DHT22;61291;52.524;13.422;2022-12-17T02:36:51;0.60;99.90
5711;DHT22;61291;52.524;13.422;2022-12-17T02:39:35;0.50;99.90
5711;DHT22;61291;52.524;13.422;2022-12-17T02:42:21;0.40;99.90
5711;DHT22;61291;52.524;13.422;2022-12-17T02:45:06;0.30;99.90
5711;DHT22;61291;52.524;13.422;2022-12-17T02:47:50;0.20;99.90
5711;DHT22;61291;52.524;13.422;2022-12-17T02:50:36;0.20;99.90
5711;DHT22;61291;52.524;13.422;2022-12-17T02:53:21;0.10;99.90
5711;DHT22;61291;52.524;13.422;2022-12-17T02:56:05;0.20;99.90
5711;DHT22;61291;52.524;13.422;2022-12-17T02:58:49;0.20;99.90
5711;DHT22;61291;52.524;13.422;2022-12-17T03:01:33;0.10;99.90
5711;DHT22;61291;52.524;13.422;2022-12-17T03:04:17;0.00;99.90
5711;DHT22;61291;52.524;13.422;2022-12-17T03:07:01;0.00;99.90
5711;DHT22;61291;52.524;13.422;2022-12-17T03:09:45;0.10;99.90
5711;DHT22;61291;52.524;13.422;2022-12-17T03:12:29;0.10;99.90
5711;DHT22;61291;52.524;13.422;2022-12-17T03:15:13;0.10;99.90
5711;DHT22;61291;52.524;13.422;2022-12-17T03:17:57;0.10;99.90
5711;DHT22;61291;52.524;13.422;2022-12-17T03:20:41;0.10;99.90
5711;DHT22;61291;52.524;13.422;2022-12-17T03:23:25;0.10;99.90
5711;DHT22;61291;52.524;13.422;2022-12-17T03:26:09;0.20;99.90
5711;DHT22;61291;52.524;13.422;2022-12-17T03:28:53;0.20;99.90
5711;DHT22;61291;52.524;13.422;2022-12-17T03:31:37;0.10;99.90
5711;DHT22;61291;52.524;13.422;2022-12-17T03:34:21;0.10;99.90
5711;DHT22;61291;52.524;13.422;2022-12-17T03:37:05;0.00;99.90
5711;DHT22;61291;52.524;13.422;2022-12-17T03:39:49;0.00;99.90
5711;DHT22;61291;52.524;13.422;2022-12-17T03:42:33;0.10;99.90
5711;DHT22;61291;52.524;13.422;2022-12-17T03:45:17;0.10;99.90
5711;DHT22;61291;52.524;13.422;2022-12-17T03:48:10;0.10;99.90
5711;DHT22;61291;52.524;13.422;2022-12-17T03:50:54;0.20;99.90
5711;DHT22;61291;52.524;13.422;2022-12-17T03:53:39;0.10;99.90
5711;DHT22;61291;52.524;13.422;2022-12-17T03:56:24;0.20;99.90
5711;DHT22;61291;52.524;13.422;2022-12-17T03:59:09;0.20;99.90
5711;DHT22;61291;52.524;13.422;2022-12-17T04:01:54;0.10;99.90
5711;DHT22;61291;52.524;13.422;2022-12-17T04:04:38;0.10;99.90
5711;DHT22;61291;52.524;13.422;2022-12-17T04:07:22;0.10;99.90
5711;DHT22;61291;52.524;13.422;2022-12-17T04:10:26;0.00;99.90
5711;DHT22;61291;52.524;13.422;2022-12-17T04:13:10;0.10;99.90
5711;DHT22;61291;52.524;13.422;2022-12-17T04:15:54;0.10;99.90
5711;DHT22;61291;52.524;13.422;2022-12-17T04:18:39;0.10;99.90
5711;DHT22;61291;52.524;13.422;2022-12-17T04:21:23;0.10;99.90
5711;DHT22;61291;52.524;13.422;2022-12-17T04:24:07;0.10;99.90
5711;DHT22;61291;52.524;13.422;2022-12-17T04:26:51;0.10;99.90
5711;DHT22;61291;52.524;13.422;2022-12-17T04:29:35;0.20;99.90
5711;DHT22;61291;52.524;13.422;2022-12-17T04:32:20;0.20;99.90
5711;DHT22;61291;52.524;13.422;2022-12-17T04:35:04;0.20;99.90
5711;DHT22;61291;52.524;13.422;2022-12-17T04:37:49;0.10;99.90
5711;DHT22;61291;52.524;13.422;2022-12-17T04:40:33;0.10;99.90
5711;DHT22;61291;52.524;13.422;2022-12-17T04:43:17;0.00;99.90
5711;DHT22;61291;52.524;13.422;2022-12-17T04:46:01;0.00;99.90
5711;DHT22;61291;52.524;13.422;2022-12-17T04:48:45;-0.10;99.90
5711;DHT22;61291;52.524;13.422;2022-12-17T04:51:29;0.00;99.90
5711;DHT22;61291;52.524;13.422;2022-12-17T04:54:13;0.00;99.90
5711;DHT22;61291;52.524;13.422;2022-12-17T04:56:57;0.10;99.90
5711;DHT22;61291;52.524;13.422;2022-12-17T04:59:41;0.10;99.90
5711;DHT22;61291;52.524;13.422;2022-12-17T05:02:25;0.10;99.90
5711;DHT22;61291;52.524;13.422;2022-12-17T05:05:10;0.10;99.90
5711;DHT22;61291;52.524;13.422;2022-12-17T05:07:54;0.10;99.90
5711;DHT22;61291;52.524;13.422;2022-12-17T05:10:39;0.20;99.90
5711;DHT22;61291;52.524;13.422;2022-12-17T05:13:23;0.20;99.90
5711;DHT22;61291;52.524;13.422;2022-12-17T05:16:07;0.30;99.90
5711;DHT22;61291;52.524;13.422;2022-12-17T05:18:52;0.20;99.90
5711;DHT22;61291;52.524;13.422;2022-12-17T05:21:36;0.20;99.90
5711;DHT22;61291;52.524;13.422;2022-12-17T05:24:20;0.20;99.90
5711;DHT22;61291;52.524;13.422;2022-12-17T05:27:04;0.10;99.90
5711;DHT22;61291;52.524;13.422;2022-12-17T05:29:48;0.10;99.90
5711;DHT22;61291;52.524;13.422;2022-12-17T05:32:32;0.00;99.90
5711;DHT22;61291;52.524;13.422;2022-12-17T05:35:16;-0.10;99.90
5711;DHT22;61291;52.524;13.422;2022-12-17T05:38:08;-0.10;99.90
5711;DHT22;61291;52.524;13.422;2022-12-17T05:40:57;-0.10;99.90
5711;DHT22;61291;52.524;13.422;2022-12-17T05:43:41;-0.10;99.90
5711;DHT22;61291;52.524;13.422;2022-12-17T05:46:26;-0.10;99.90
5711;DHT22;61291;52.524;13.422;2022-12-17T05:49:10;0.00;99.90
5711;DHT22;61291;52.524;13.422;2022-12-17T05:51:54;0.00;99.90
5711;DHT22;61291;52.524;13.422;2022-12-17T05:54:38;-0.10;99.90
5711;DHT22;61291;52.524;13.422;2022-12-17T05:57:22;-0.10;99.90
5711;DHT22;61291;52.524;13.422;2022-12-17T06:00:07;-0.10;99.90
5711;DHT22;61291;52.524;13.422;2022-12-17T06:02:59;-0.10;99.90
5711;DHT22;61291;52.524;13.422;2022-12-17T06:05:43;0.00;99.90
5711;DHT22;61291;52.524;13.422;2022-12-17T06:08:27;0.00;99.90
5711;DHT22;61291;52.524;13.422;2022-12-17T06:11:11;0.00;99.90
5711;DHT22;61291;52.524;13.422;2022-12-17T06:13:55;-0.10;99.90
5711;DHT22;61291;52.524;13.422;2022-12-17T06:16:50;-0.10;99.90
5711;DHT22;61291;52.524;13.422;2022-12-17T06:19:34;-0.10;99.90
5711;DHT22;61291;52.524;13.422;2022-12-17T06:22:18;-0.10;99.90
5711;DHT22;61291;52.524;13.422;2022-12-17T06:25:02;-0.10;99.90
5711;DHT22;61291;52.524;13.422;2022-12-17T06:27:46;-0.10;99.90
5711;DHT22;61291;52.524;13.422;2022-12-17T06:30:31;-0.20;99.90
5711;DHT22;61291;52.524;13.422;2022-12-17T06:33:16;-0.20;99.90
5711;DHT22;61291;52.524;13.422;2022-12-17T06:36:00;-0.20;99.90
5711;DHT22;61291;52.524;13.422;2022-12-17T06:38:44;-0.10;99.90
5711;DHT22;61291;52.524;13.422;2022-12-17T06:41:28;-0.10;99.90
5711;DHT22;61291;52.524;13.422;2022-12-17T06:44:12;0.00;99.90
5711;DHT22;61291;52.524;13.422;2022-12-17T06:46:56;-0.10;99.90
5711;DHT22;61291;52.524;13.422;2022-12-17T06:49:48;-0.10;99.90
5711;DHT22;61291;52.524;13.422;2022-12-17T06:52:32;-0.10;99.90
5711;DHT22;61291;52.524;13.422;2022-12-17T06:55:16;-0.10;99.90
5711;DHT22;61291;52.524;13.422;2022-12-17T06:58:00;-0.20;99.90
5711;DHT22;61291;52.524;13.422;2022-12-17T07:00:45;-0.30;99.90
5711;DHT22;61291;52.524;13.422;2022-12-17T07:03:29;-0.30;99.90
5711;DHT22;61291;52.524;13.422;2022-12-17T07:06:13;-0.30;99.90
5711;DHT22;61291;52.524;13.422;2022-12-17T07:08:57;-0.40;99.90
5711;DHT22;61291;52.524;13.422;2022-12-17T07:11:41;-0.30;99.90
5711;DHT22;61291;52.524;13.422;2022-12-17T07:14:26;-0.20;99.90
5711;DHT22;61291;52.524;13.422;2022-12-17T07:17:10;-0.30;99.90
5711;DHT22;61291;52.524;13.422;2022-12-17T07:19:54;-0.20;99.90
5711;DHT22;61291;52.524;13.422;2022-12-17T07:22:38;-0.20;99.90
5711;DHT22;61291;52.524;13.422;2022-12-17T07:25:22;-0.10;99.90
5711;DHT22;61291;52.524;13.422;2022-12-17T07:28:06;-0.10;99.90
5711;DHT22;61291;52.524;13.422;2022-12-17T07:30:50;0.00;99.90
5711;DHT22;61291;52.524;13.422;2022-12-17T07:33:34;0.10;99.90
5711;DHT22;61291;52.524;13.422;2022-12-17T07:36:18;0.10;99.90
5711;DHT22;61291;52.524;13.422;2022-12-17T07:39:02;0.10;99.90
5711;DHT22;61291;52.524;13.422;2022-12-17T07:41:46;0.20;99.90
5711;DHT22;61291;52.524;13.422;2022-12-17T07:44:30;0.20;99.90
5711;DHT22;61291;52.524;13.422;2022-12-17T07:47:14;0.00;99.90
5711;DHT22;61291;52.524;13.422;2022-12-17T07:49:58;0.00;99.90
5711;DHT22;61291;52.524;13.422;2022-12-17T07:52:42;0.00;99.90
5711;DHT22;61291;52.524;13.422;2022-12-17T07:55:40;0.10;99.90
5711;DHT22;61291;52.524;13.422;2022-12-17T07:58:24;0.20;99.90
5711;DHT22;61291;52.524;13.422;2022-12-17T08:01:08;0.20;99.90
5711;DHT22;61291;52.524;13.422;2022-12-17T08:03:52;0.30;99.90
5711;DHT22;61291;52.524;13.422;2022-12-17T08:06:36;0.30;99.90
5711;DHT22;61291;52.524;13.422;2022-12-17T08:09:21;0.30;99.90
5711;DHT22;61291;52.524;13.422;2022-12-17T08:12:05;0.20;99.90
5711;DHT22;61291;52.524;13.422;2022-12-17T08:14:49;0.20;99.90
5711;DHT22;61291;52.524;13.422;2022-12-17T08:17:33;0.20;99.90
5711;DHT22;61291;52.524;13.422;2022-12-17T08:20:27;0.30;99.90
5711;DHT22;61291;52.524;13.422;2022-12-17T08:23:31;0.40;99.90
5711;DHT22;61291;52.524;13.422;2022-12-17T08:26:15;0.60;99.90
5711;DHT22;61291;52.524;13.422;2022-12-17T08:28:59;0.70;99.90
5711;DHT22;61291;52.524;13.422;2022-12-17T08:31:44;0.80;99.90
5711;DHT22;61291;52.524;13.422;2022-12-17T08:34:28;0.70;99.90
5711;DHT22;61291;52.524;13.422;2022-12-17T08:37:12;0.70;99.90
5711;DHT22;61291;52.524;13.422;2022-12-17T08:39:56;0.60;99.90
5711;DHT22;61291;52.524;13.422;2022-12-17T08:42:40;0.60;99.90
5711;DHT22;61291;52.524;13.422;2022-12-17T08:45:24;0.70;99.90
5711;DHT22;61291;52.524;13.422;2022-12-17T08:48:08;0.90;99.90
5711;DHT22;61291;52.524;13.422;2022-12-17T08:50:52;1.10;99.90
5711;DHT22;61291;52.524;13.422;2022-12-17T08:53:37;1.10;99.90
5711;DHT22;61291;52.524;13.422;2022-12-17T08:56:21;1.10;99.90
5711;DHT22;61291;52.524;13.422;2022-12-17T08:59:05;1.00;99.90
5711;DHT22;61291;52.524;13.422;2022-12-17T09:01:49;1.00;99.90
5711;DHT22;61291;52.524;13.422;2022-12-17T09:04:33;1.10;99.90
5711;DHT22;61291;52.524;13.422;2022-12-17T09:07:18;1.20;99.90
5711;DHT22;61291;52.524;13.422;2022-12-17T09:10:02;1.40;99.90
5711;DHT22;61291;52.524;13.422;2022-12-17T09:12:50;1.50;99.90
5711;DHT22;61291;52.524;13.422;2022-12-17T09:15:34;1.70;99.90
5711;DHT22;61291;52.524;13.422;2022-12-17T09:18:21;1.80;99.90
5711;DHT22;61291;52.524;13.422;2022-12-17T09:21:13;1.90;99.90
5711;DHT22;61291;52.524;13.422;2022-12-17T09:23:57;1.90;99.90
5711;DHT22;61291;52.524;13.422;2022-12-17T09:26:45;1.80;99.90
5711;DHT22;61291;52.524;13.422;2022-12-17T09:29:30;1.80;99.90
5711;DHT22;61291;52.524;13.422;2022-12-17T09:32:14;1.90;99.90
5711;DHT22;61291;52.524;13.422;2022-12-17T09:34:58;2.00;99.90
5711;DHT22;61291;52.524;13.422;2022-12-17T09:37:42;2.10;99.90
5711;DHT22;61291;52.524;13.422;2022-12-17T09:40:26;2.10;99.90
5711;DHT22;61291;52.524;13.422;2022-12-17T09:43:30;2.00;99.90
5711;DHT22;61291;52.524;13.422;2022-12-17T09:46:32;1.90;99.90
5711;DHT22;61291;52.524;13.422;2022-12-17T09:49:25;1.70;99.90
5711;DHT22;61291;52.524;13.422;2022-12-17T09:52:25;1.70;99.90
5711;DHT22;61291;52.524;13.422;2022-12-17T09:55:45;1.70;99.90
5711;DHT22;61291;52.524;13.422;2022-12-17T09:58:29;1.60;99.90
5711;DHT22;61291;52.524;13.422;2022-12-17T10:01:17;1.20;99.90
5711;DHT22;61291;52.524;13.422;2022-12-17T10:04:04;1.20;99.90
5711;DHT22;61291;52.524;13.422;2022-12-17T10:06:50;1.40;99.90
5711;DHT22;61291;52.524;13.422;2022-12-17T10:09:34;1.70;99.90
5711;DHT22;61291;52.524;13.422;2022-12-17T10:12:19;1.90;99.90
5711;DHT22;61291;52.524;13.422;2022-12-17T10:15:05;1.90;99.90
5711;DHT22;61291;52.524;13.422;2022-12-17T10:17:49;2.00;99.90
5711;DHT22;61291;52.524;13.422;2022-12-17T10:20:40;2.10;99.90
5711;DHT22;61291;52.524;13.422;2022-12-17T10:23:31;2.30;99.90
5711;DHT22;61291;52.524;13.422;2022-12-17T10:26:25;2.40;99.90
5711;DHT22;61291;52.524;13.422;2022-12-17T10:29:24;2.60;99.90
5711;DHT22;61291;52.524;13.422;2022-12-17T10:34:59;2.80;99.90
5711;DHT22;61291;52.524;13.422;2022-12-17T10:37:43;2.80;99.90
5711;DHT22;61291;52.524;13.422;2022-12-17T10:40:29;2.80;99.90
5711;DHT22;61291;52.524;13.422;2022-12-17T10:43:28;2.80;99.90
5711;DHT22;61291;52.524;13.422;2022-12-17T10:46:42;2.80;99.90
5711;DHT22;61291;52.524;13.422;2022-12-17T10:49:26;2.80;99.90
5711;DHT22;61291;52.524;13.422;2022-12-17T10:52:18;2.80;99.90
5711;DHT22;61291;52.524;13.422;2022-12-17T10:55:14;2.70;99.90
5711;DHT22;61291;52.524;13.422;2022-12-17T10:58:01;2.70;99.90
5711;DHT22;61291;52.524;13.422;2022-12-17T11:00:47;2.70;99.90
5711;DHT22;61291;52.524;13.422;2022-12-17T11:06:23;3.00;99.90
5711;DHT22;61291;52.524;13.422;2022-12-17T11:09:30;3.00;99.90
5711;DHT22;61291;52.524;13.422;2022-12-17T11:12:16;3.10;99.90
5711;DHT22;61291;52.524;13.422;2022-12-17T11:15:16;3.20;99.90
5711;DHT22;61291;52.524;13.422;2022-12-17T11:18:03;3.30;99.90
5711;DHT22;61291;52.524;13.422;2022-12-17T11:21:05;3.40;99.90
5711;DHT22;61291;52.524;13.422;2022-12-17T11:23:53;3.40;99.90
5711;DHT22;61291;52.524;13.422;2022-12-17T11:26:40;3.40;99.90
5711;DHT22;61291;52.524;13.422;2022-12-17T11:29:27;3.30;99.90
5711;DHT22;61291;52.524;13.422;2022-12-17T11:32:35;3.30;99.90
5711;DHT22;61291;52.524;13.422;2022-12-17T11:35:30;3.10;99.90
5711;DHT22;61291;52.524;13.422;2022-12-17T11:38:40;2.70;99.90
5711;DHT22;61291;52.524;13.422;2022-12-17T11:41:36;2.50;99.90
5711;DHT22;61291;52.524;13.422;2022-12-17T11:44:32;2.30;99.90
5711;DHT22;61291;52.524;13.422;2022-12-17T11:47:47;2.10;99.90
5711;DHT22;61291;52.524;13.422;2022-12-17T11:50:53;1.90;99.90
5711;DHT22;61291;52.524;13.422;2022-12-17T11:54:19;1.90;99.90
5711;DHT22;61291;52.524;13.422;2022-12-17T11:57:16;1.60;99.90
5711;DHT22;61291;52.524;13.422;2022-12-17T12:00:14;1.70;99.90
5711;DHT22;61291;52.524;13.422;2022-12-17T12:06:43;1.90;99.90
5711;DHT22;61291;52.524;13.422;2022-12-17T12:12:46;1.90;99.90
5711;DHT22;61291;52.524;13.422;2022-12-17T12:15:46;2.00;99.90
5711;DHT22;61291;52.524;13.422;2022-12-17T12:18:43;1.90;99.90
5711;DHT22;61291;52.524;13.422;2022-12-17T12:21:56;1.60;99.90
5711;DHT22;61291;52.524;13.422;2022-12-17T12:24:46;1.40;99.90
5711;DHT22;61291;52.524;13.422;2022-12-17T12:34:00;1.60;99.90
5711;DHT22;61291;52.524;13.422;2022-12-17T12:36:45;1.80;99.90
5711;DHT22;61291;52.524;13.422;2022-12-17T12:46:16;1.50;99.90
5711;DHT22;61291;52.524;13.422;2022-12-17T12:49:22;1.10;99.90
5711;DHT22;61291;52.524;13.422;2022-12-17T12:52:13;1.10;99.90
5711;DHT22;61291;52.524;13.422;2022-12-17T12:55:00;1.20;99.90
5711;DHT22;61291;52.524;13.422;2022-12-17T12:58:03;1.30;99.90
5711;DHT22;61291;52.524;13.422;2022-12-17T13:03:33;1.40;99.90
5711;DHT22;61291;52.524;13.422;2022-12-17T13:06:38;1.50;99.90
5711;DHT22;61291;52.524;13.422;2022-12-17T13:11:43;1.60;99.90
5711;DHT22;61291;52.524;13.422;2022-12-17T13:14:14;1.60;99.90
5711;DHT22;61291;52.524;13.422;2022-12-17T13:16:51;1.50;99.90
5711;DHT22;61291;52.524;13.422;2022-12-17T13:19:36;1.50;99.90
5711;DHT22;61291;52.524;13.422;2022-12-17T13:24:40;1.40;99.90
5711;DHT22;61291;52.524;13.422;2022-12-17T13:29:54;1.30;99.90
5711;DHT22;61291;52.524;13.422;2022-12-17T13:32:30;1.30;99.90
5711;DHT22;61291;52.524;13.422;2022-12-17T13:38:00;1.20;99.90
5711;DHT22;61291;52.524;13.422;2022-12-17T13:40:44;1.10;99.90
5711;DHT22;61291;52.524;13.422;2022-12-17T13:43:16;1.10;99.90
5711;DHT22;61291;52.524;13.422;2022-12-17T13:45:43;1.10;99.90
5711;DHT22;61291;52.524;13.422;2022-12-17T13:48:20;1.10;99.90
5711;DHT22;61291;52.524;13.422;2022-12-17T13:50:57;1.10;99.90
5711;DHT22;61291;52.524;13.422;2022-12-17T13:53:25;1.00;99.90
5711;DHT22;61291;52.524;13.422;2022-12-17T13:55:53;1.00;99.90
5711;DHT22;61291;52.524;13.422;2022-12-17T13:58:31;1.00;99.90
5711;DHT22;61291;52.524;13.422;2022-12-17T14:01:08;1.00;99.90
5711;DHT22;61291;52.524;13.422;2022-12-17T14:03:35;1.00;99.90
5711;DHT22;61291;52.524;13.422;2022-12-17T14:06:02;1.00;99.90
5711;DHT22;61291;52.524;13.422;2022-12-17T14:08:30;1.00;99.90
5711;DHT22;61291;52.524;13.422;2022-12-17T14:10:57;1.00;99.90
5711;DHT22;61291;52.524;13.422;2022-12-17T14:13:43;1.00;99.90
5711;DHT22;61291;52.524;13.422;2022-12-17T14:16:17;1.00;99.90
5711;DHT22;61291;52.524;13.422;2022-12-17T14:18:46;1.00;99.90
5711;DHT22;61291;52.524;13.422;2022-12-17T14:21:13;1.00;99.90
5711;DHT22;61291;52.524;13.422;2022-12-17T14:23:39;1.00;99.90
5711;DHT22;61291;52.524;13.422;2022-12-17T14:26:09;1.00;99.90
5711;DHT22;61291;52.524;13.422;2022-12-17T14:28:43;0.90;99.90
5711;DHT22;61291;52.524;13.422;2022-12-17T14:33:40;0.90;99.90
5711;DHT22;61291;52.524;13.422;2022-12-17T14:36:08;0.80;99.90
5711;DHT22;61291;52.524;13.422;2022-12-17T14:38:35;0.80;99.90
5711;DHT22;61291;52.524;13.422;2022-12-17T14:41:12;0.70;99.90
5711;DHT22;61291;52.524;13.422;2022-12-17T14:43:58;0.80;99.90
5711;DHT22;61291;52.524;13.422;2022-12-17T14:46:24;0.70;99.90
5711;DHT22;61291;52.524;13.422;2022-12-17T14:48:57;0.70;99.90
5711;DHT22;61291;52.524;13.422;2022-12-17T14:51:37;0.70;99.90
5711;DHT22;61291;52.524;13.422;2022-12-17T14:56:50;0.50;99.90
5711;DHT22;61291;52.524;13.422;2022-12-17T14:59:33;0.40;99.90
5711;DHT22;61291;52.524;13.422;2022-12-17T15:04:35;0.20;99.90
5711;DHT22;61291;52.524;13.422;2022-12-17T15:07:01;0.10;99.90
5711;DHT22;61291;52.524;13.422;2022-12-17T15:09:26;0.00;99.90
5711;DHT22;61291;52.524;13.422;2022-12-17T15:11:52;0.00;99.90
5711;DHT22;61291;52.524;13.422;2022-12-17T15:14:17;-0.10;99.90
5711;DHT22;61291;52.524;13.422;2022-12-17T15:16:43;-0.10;99.90
5711;DHT22;61291;52.524;13.422;2022-12-17T15:19:08;-0.10;99.90
5711;DHT22;61291;52.524;13.422;2022-12-17T15:21:34;-0.20;99.90
5711;DHT22;61291;52.524;13.422;2022-12-17T15:23:59;-0.20;99.90
5711;DHT22;61291;52.524;13.422;2022-12-17T15:26:25;-0.20;99.90
5711;DHT22;61291;52.524;13.422;2022-12-17T15:28:51;-0.20;99.90
5711;DHT22;61291;52.524;13.422;2022-12-17T15:31:17;-0.30;99.90
5711;DHT22;61291;52.524;13.422;2022-12-17T15:33:42;-0.30;99.90
5711;DHT22;61291;52.524;13.422;2022-12-17T15:36:09;-0.30;99.90
5711;DHT22;61291;52.524;13.422;2022-12-17T15:38:35;-0.30;99.90
5711;DHT22;61291;52.524;13.422;2022-12-17T15:41:02;-0.30;99.90
5711;DHT22;61291;52.524;13.422;2022-12-17T15:43:47;-0.30;99.90
5711;DHT22;61291;52.524;13.422;2022-12-17T15:46:12;-0.30;99.90
5711;DHT22;61291;52.524;13.422;2022-12-17T15:48:38;-0.20;99.90
5711;DHT22;61291;52.524;13.422;2022-12-17T15:51:03;-0.20;99.90
5711;DHT22;61291;52.524;13.422;2022-12-17T15:53:29;-0.20;99.90
5711;DHT22;61291;52.524;13.422;2022-12-17T15:56:02;-0.20;99.90
5711;DHT22;61291;52.524;13.422;2022-12-17T15:58:28;-0.10;99.90
5711;DHT22;61291;52.524;13.422;2022-12-17T16:00:53;-0.10;99.90
5711;DHT22;61291;52.524;13.422;2022-12-17T16:03:19;-0.10;99.90
5711;DHT22;61291;52.524;13.422;2022-12-17T16:05:44;-0.10;99.90
5711;DHT22;61291;52.524;13.422;2022-12-17T16:08:10;-0.10;99.90
5711;DHT22;61291;52.524;13.422;2022-12-17T16:10:36;0.00;99.90
5711;DHT22;61291;52.524;13.422;2022-12-17T16:13:02;0.00;99.90
5711;DHT22;61291;52.524;13.422;2022-12-17T16:15:27;-0.10;99.90
5711;DHT22;61291;52.524;13.422;2022-12-17T16:17:53;-0.10;99.90
5711;DHT22;61291;52.524;13.422;2022-12-17T16:20:18;-0.10;99.90
5711;DHT22;61291;52.524;13.422;2022-12-17T16:22:44;-0.10;99.90
5711;DHT22;61291;52.524;13.422;2022-12-17T16:25:09;-0.10;99.90
5711;DHT22;61291;52.524;13.422;2022-12-17T16:27:35;-0.10;99.90
5711;DHT22;61291;52.524;13.422;2022-12-17T16:30:00;-0.10;99.90
5711;DHT22;61291;52.524;13.422;2022-12-17T16:32:27;-0.10;99.90
5711;DHT22;61291;52.524;13.422;2022-12-17T16:34:53;-0.20;99.90
5711;DHT22;61291;52.524;13.422;2022-12-17T16:37:18;-0.20;99.90
5711;DHT22;61291;52.524;13.422;2022-12-17T16:39:44;-0.30;99.90
5711;DHT22;61291;52.524;13.422;2022-12-17T16:42:09;-0.20;99.90
5711;DHT22;61291;52.524;13.422;2022-12-17T16:44:35;-0.20;99.90
5711;DHT22;61291;52.524;13.422;2022-12-17T16:47:01;-0.20;99.90
5711;DHT22;61291;52.524;13.422;2022-12-17T16:49:27;-0.20;99.90
5711;DHT22;61291;52.524;13.422;2022-12-17T16:51:54;-0.10;99.90
5711;DHT22;61291;52.524;13.422;2022-12-17T16:54:25;-0.10;99.90
5711;DHT22;61291;52.524;13.422;2022-12-17T16:56:51;-0.10;99.90
5711;DHT22;61291;52.524;13.422;2022-12-17T16:59:17;-0.10;99.90
5711;DHT22;61291;52.524;13.422;2022-12-17T17:01:45;-0.20;99.90
5711;DHT22;61291;52.524;13.422;2022-12-17T17:04:12;-0.20;99.90
5711;DHT22;61291;52.524;13.422;2022-12-17T17:06:47;-0.20;99.90
5711;DHT22;61291;52.524;13.422;2022-12-17T17:09:13;-0.20;99.90
5711;DHT22;61291;52.524;13.422;2022-12-17T17:11:39;-0.20;99.90
5711;DHT22;61291;52.524;13.422;2022-12-17T17:14:06;-0.20;99.90
5711;DHT22;61291;52.524;13.422;2022-12-17T17:16:32;-0.20;99.90
5711;DHT22;61291;52.524;13.422;2022-12-17T17:18:58;-0.30;99.90
5711;DHT22;61291;52.524;13.422;2022-12-17T17:21:32;-0.30;99.90
5711;DHT22;61291;52.524;13.422;2022-12-17T17:26:30;-0.30;99.90
5711;DHT22;61291;52.524;13.422;2022-12-17T17:28:57;-0.30;99.90
5711;DHT22;61291;52.524;13.422;2022-12-17T17:31:22;-0.40;99.90
5711;DHT22;61291;52.524;13.422;2022-12-17T17:33:49;-0.40;99.90
5711;DHT22;61291;52.524;13.422;2022-12-17T17:36:21;-0.40;99.90
5711;DHT22;61291;52.524;13.422;2022-12-17T17:38:47;-0.40;99.90
5711;DHT22;61291;52.524;13.422;2022-12-17T17:41:16;-0.40;99.90
5711;DHT22;61291;52.524;13.422;2022-12-17T17:43:42;-0.40;99.90
5711;DHT22;61291;52.524;13.422;2022-12-17T17:46:09;-0.40;99.90
5711;DHT22;61291;52.524;13.422;2022-12-17T17:48:35;-0.40;99.90
5711;DHT22;61291;52.524;13.422;2022-12-17T17:51:08;-0.40;99.90
5711;DHT22;61291;52.524;13.422;2022-12-17T17:53:34;-0.40;99.90
5711;DHT22;61291;52.524;13.422;2022-12-17T17:56:09;-0.50;99.90
5711;DHT22;61291;52.524;13.422;2022-12-17T17:58:40;-0.50;99.90
5711;DHT22;61291;52.524;13.422;2022-12-17T18:01:08;-0.50;99.90
5711;DHT22;61291;52.524;13.422;2022-12-17T18:03:34;-0.50;99.90
5711;DHT22;61291;52.524;13.422;2022-12-17T18:06:04;-0.40;99.90